createdAt,value
2022-08-16T00:01:43.616Z,22.48
2022-08-16T00:04:12.782Z,22.39
2022-08-16T00:06:41.145Z,22.45
2022-08-16T00:09:12.270Z,22.28
2022-08-16T00:11:43.767Z,22.38
2022-08-16T00:14:19.355Z,22.31
2022-08-16T00:17:01.067Z,22.36
2022-08-16T00:19:41.290Z,22.26
2022-08-16T00:22:12.826Z,22.39
2022-08-16T00:24:41.164Z,22.39
2022-08-16T00:27:12.734Z,22.40
2022-08-16T00:29:41.274Z,22.42
2022-08-16T00:32:11.035Z,22.43
2022-08-16T00:34:43.687Z,22.18
2022-08-16T00:37:17.123Z,22.33
2022-08-16T00:39:56.864Z,22.31
2022-08-16T00:42:29.658Z,22.18
2022-08-16T00:45:17.067Z,22.09
2022-08-16T00:47:49.238Z,22.05
2022-08-16T00:50:35.678Z,22.25
2022-08-16T00:53:11.271Z,22.17
2022-08-16T00:55:50.913Z,22.13
2022-08-16T00:58:34.792Z,22.12
2022-08-16T01:01:08.705Z,22.13
2022-08-16T01:03:41.564Z,22.08
2022-08-16T01:06:39.840Z,21.77
2022-08-16T01:09:05.591Z,21.95
2022-08-16T01:11:36.290Z,22.06
2022-08-16T01:14:39.661Z,22.00
2022-08-16T01:17:13.759Z,21.93
2022-08-16T01:19:48.060Z,21.91
2022-08-16T01:22:47.110Z,21.82
2022-08-16T01:25:33.683Z,21.70
2022-08-16T01:28:08.461Z,21.70
2022-08-16T01:30:49.465Z,21.78
2022-08-16T01:33:20.645Z,21.81
2022-08-16T01:35:58.199Z,21.87
2022-08-16T01:38:38.282Z,21.79
2022-08-16T01:41:19.356Z,21.80
2022-08-16T01:43:53.472Z,21.60
2022-08-16T01:46:40.259Z,21.71
2022-08-16T01:49:42.784Z,21.70
2022-08-16T01:52:29.252Z,21.71
2022-08-16T01:55:18.510Z,21.69
2022-08-16T01:57:53.439Z,21.66
2022-08-16T02:00:29.200Z,21.45
2022-08-16T02:02:59.805Z,21.53
2022-08-16T02:05:30.652Z,21.48
2022-08-16T02:08:01.289Z,21.36
2022-08-16T02:10:34.005Z,21.33
2022-08-16T02:13:06.483Z,21.29
2022-08-16T02:15:42.475Z,21.44
2022-08-16T02:18:13.964Z,21.33
2022-08-16T02:20:53.577Z,21.27
2022-08-16T02:23:23.004Z,21.22
2022-08-16T02:25:53.697Z,21.29
2022-08-16T02:28:24.760Z,21.25
2022-08-16T02:30:53.878Z,21.16
2022-08-16T02:33:24.488Z,21.15
2022-08-16T02:36:47.432Z,21.05
2022-08-16T02:39:06.495Z,21.19
2022-08-16T02:41:39.576Z,21.09
2022-08-16T02:44:13.597Z,21.24
2022-08-16T02:46:50.705Z,21.22
2022-08-16T02:49:58.115Z,21.16
2022-08-16T02:52:17.316Z,21.03
2022-08-16T02:54:55.874Z,21.07
2022-08-16T02:57:26.142Z,20.96
2022-08-16T02:59:54.849Z,21.05
2022-08-16T03:02:31.748Z,20.93
2022-08-16T03:05:06.487Z,20.87
2022-08-16T03:07:37.007Z,20.92
2022-08-16T03:10:09.771Z,21.02
2022-08-16T03:12:55.426Z,20.90
2022-08-16T03:15:28.195Z,21.05
2022-08-16T03:17:57.664Z,21.05
2022-08-16T03:20:31.832Z,21.02
2022-08-16T03:23:02.868Z,20.81
2022-08-16T03:25:41.071Z,20.96
2022-08-16T03:28:14.071Z,20.79
2022-08-16T03:30:47.450Z,20.91
2022-08-16T03:33:16.471Z,20.78
2022-08-16T03:35:57.056Z,20.95
2022-08-16T03:38:34.584Z,20.95
2022-08-16T03:41:25.486Z,20.88
2022-08-16T03:44:00.246Z,20.80
2022-08-16T03:46:44.515Z,20.81
2022-08-16T03:49:18.044Z,20.92
2022-08-16T03:51:48.750Z,20.86
2022-08-16T03:54:23.444Z,20.84
2022-08-16T03:56:58.091Z,20.93
2022-08-16T03:59:31.587Z,20.94
2022-08-16T04:02:10.574Z,20.99
2022-08-16T04:04:54.091Z,20.88
2022-08-16T04:07:24.655Z,20.84
2022-08-16T04:09:52.961Z,20.90
2022-08-16T04:12:54.602Z,20.86
2022-08-16T04:15:13.557Z,20.91
2022-08-16T04:17:57.962Z,20.95
2022-08-16T04:20:33.731Z,20.98
2022-08-16T04:23:06.270Z,20.91
2022-08-16T04:25:37.804Z,20.94
2022-08-16T04:28:29.703Z,20.92
2022-08-16T04:30:55.733Z,20.93
2022-08-16T04:33:27.073Z,20.83
2022-08-16T04:35:58.309Z,20.96
2022-08-16T04:38:27.779Z,20.91
2022-08-16T04:40:58.962Z,20.98
2022-08-16T04:43:27.926Z,20.97
2022-08-16T04:46:00.663Z,20.91
2022-08-16T04:48:34.248Z,20.91
2022-08-16T04:51:12.309Z,20.94
2022-08-16T04:53:48.554Z,20.85
2022-08-16T04:56:21.280Z,20.93
2022-08-16T04:58:51.812Z,20.90
2022-08-16T05:01:47.743Z,20.87
2022-08-16T05:04:19.732Z,20.80
2022-08-16T05:06:51.012Z,20.86
2022-08-16T05:09:25.839Z,20.84
2022-08-16T05:11:57.426Z,20.81
2022-08-16T05:14:45.333Z,20.85
2022-08-16T05:17:19.371Z,20.85
2022-08-16T05:19:58.282Z,20.72
2022-08-16T05:22:39.284Z,20.75
2022-08-16T05:25:12.576Z,20.92
2022-08-16T05:27:45.234Z,20.90
2022-08-16T05:30:35.257Z,20.88
2022-08-16T05:33:08.866Z,20.91
2022-08-16T05:35:37.250Z,20.96
2022-08-16T05:38:32.386Z,20.93
2022-08-16T05:41:04.597Z,21.01
2022-08-16T05:43:43.424Z,21.02
2022-08-16T05:46:30.395Z,21.01
2022-08-16T05:49:08.809Z,21.05
2022-08-16T05:51:41.765Z,21.01
2022-08-16T05:54:17.411Z,21.12
2022-08-16T05:56:59.860Z,21.04
2022-08-16T05:59:28.601Z,21.20
2022-08-16T06:01:58.468Z,21.13
2022-08-16T06:04:37.487Z,21.23
2022-08-16T06:07:26.096Z,21.32
2022-08-16T06:10:32.080Z,21.38
2022-08-16T06:13:04.142Z,21.38
2022-08-16T06:15:32.664Z,21.41
2022-08-16T06:18:04.058Z,21.56
2022-08-16T06:20:35.585Z,21.62
2022-08-16T06:23:17.584Z,21.48
2022-08-16T06:26:07.695Z,21.66
2022-08-16T06:28:39.522Z,21.63
2022-08-16T06:31:15.379Z,21.78
2022-08-16T06:33:46.927Z,21.74
2022-08-16T06:36:17.734Z,21.80
2022-08-16T06:38:59.605Z,21.89
2022-08-16T06:41:41.736Z,21.90
2022-08-16T06:44:20.898Z,21.79
2022-08-16T06:46:53.437Z,21.95
2022-08-16T06:49:22.012Z,21.79
2022-08-16T06:51:50.016Z,21.93
2022-08-16T06:54:25.230Z,22.00
2022-08-16T06:56:55.255Z,22.00
2022-08-16T06:59:26.007Z,22.10
2022-08-16T07:01:59.639Z,22.24
2022-08-16T07:04:32.459Z,22.40
2022-08-16T07:07:09.881Z,22.31
2022-08-16T07:09:39.401Z,22.42
2022-08-16T07:12:08.904Z,22.54
2022-08-16T07:14:41.314Z,22.47
2022-08-16T07:17:12.897Z,22.62
2022-08-16T07:20:30.344Z,22.72
2022-08-16T07:22:50.861Z,22.87
2022-08-16T07:25:42.065Z,22.98
2022-08-16T07:28:20.842Z,22.96
2022-08-16T07:30:53.240Z,22.98
2022-08-16T07:33:52.107Z,23.06
2022-08-16T07:36:22.695Z,22.90
2022-08-16T07:38:52.388Z,23.01
2022-08-16T07:41:21.456Z,22.97
2022-08-16T07:43:55.056Z,23.07
2022-08-16T07:46:38.752Z,23.04
2022-08-16T07:49:14.106Z,22.97
2022-08-16T07:51:43.068Z,23.16
2022-08-16T07:54:20.763Z,23.01
2022-08-16T07:56:51.841Z,23.05
2022-08-16T07:59:21.511Z,23.21
2022-08-16T08:01:53.006Z,23.18
2022-08-16T08:04:22.242Z,23.24
2022-08-16T08:06:52.219Z,23.13
2022-08-16T08:09:20.318Z,23.15
2022-08-16T08:12:00.972Z,23.37
2022-08-16T08:14:34.990Z,23.44
2022-08-16T08:17:04.820Z,23.29
2022-08-16T08:19:37.438Z,23.42
2022-08-16T08:22:19.108Z,23.53
2022-08-16T08:24:53.426Z,23.62
2022-08-16T08:27:27.933Z,23.50
2022-08-16T08:30:49.401Z,23.61
2022-08-16T08:32:59.527Z,23.91
2022-08-16T08:35:36.844Z,24.06
2022-08-16T08:38:08.585Z,24.21
2022-08-16T08:40:39.953Z,24.26
2022-08-16T08:43:18.434Z,24.40
2022-08-16T08:45:57.248Z,24.45
2022-08-16T08:48:33.329Z,24.37
2022-08-16T08:51:09.670Z,24.37
2022-08-16T08:53:58.556Z,24.41
2022-08-16T08:56:32.362Z,24.35
2022-08-16T08:59:13.371Z,24.32
2022-08-16T09:01:57.853Z,24.15
2022-08-16T09:04:29.954Z,24.39
2022-08-16T09:07:01.137Z,24.46
2022-08-16T09:09:33.504Z,24.47
2022-08-16T09:12:06.920Z,24.43
2022-08-16T09:14:51.124Z,24.48
2022-08-16T09:17:49.202Z,24.60
2022-08-16T09:20:14.452Z,24.53
2022-08-16T09:22:51.428Z,24.60
2022-08-16T09:25:34.064Z,24.62
2022-08-16T09:28:09.293Z,24.82
2022-08-16T09:30:43.903Z,24.78
2022-08-16T09:33:19.680Z,25.07
2022-08-16T09:35:53.882Z,25.23
2022-08-16T09:38:32.074Z,25.29
2022-08-16T09:41:06.958Z,25.47
2022-08-16T09:43:58.541Z,25.56
2022-08-16T09:46:45.306Z,25.57
2022-08-16T09:49:18.301Z,25.47
2022-08-16T09:51:55.583Z,25.43
2022-08-16T09:54:32.133Z,25.53
2022-08-16T09:57:01.838Z,25.57
2022-08-16T09:59:31.433Z,25.51
2022-08-16T10:02:26.354Z,25.48
2022-08-16T10:04:57.624Z,25.61
2022-08-16T10:07:44.536Z,25.62
2022-08-16T10:10:18.639Z,26.06
2022-08-16T10:13:16.237Z,26.26
2022-08-16T10:15:54.778Z,26.32
2022-08-16T10:18:56.889Z,26.35
2022-08-16T10:21:11.704Z,26.36
2022-08-16T10:23:40.474Z,26.27
2022-08-16T10:27:18.888Z,26.24
2022-08-16T10:29:00.999Z,26.27
2022-08-16T10:31:46.076Z,26.34
2022-08-16T10:34:31.947Z,26.51
2022-08-16T10:37:02.280Z,26.68
2022-08-16T10:39:40.800Z,26.84
2022-08-16T10:42:13.368Z,27.13
2022-08-16T10:44:42.371Z,27.29
2022-08-16T10:47:11.529Z,27.27
2022-08-16T10:49:39.511Z,27.56
2022-08-16T10:52:19.093Z,27.68
2022-08-16T10:57:35.532Z,28.01
2022-08-16T11:00:21.687Z,27.99
2022-08-16T11:03:41.919Z,28.00
2022-08-16T11:05:59.408Z,27.87
2022-08-16T11:08:35.213Z,27.61
2022-08-16T11:11:13.026Z,27.58
2022-08-16T11:13:58.911Z,27.41
2022-08-16T11:17:02.136Z,27.31
2022-08-16T11:19:17.052Z,27.13
2022-08-16T11:24:39.461Z,27.12
2022-08-16T11:27:20.422Z,27.06
2022-08-16T11:29:52.997Z,26.99
2022-08-16T11:32:31.538Z,26.91
2022-08-16T11:35:10.544Z,26.99
2022-08-16T11:38:47.577Z,26.94
2022-08-16T11:40:56.857Z,26.81
2022-08-16T11:43:30.415Z,26.83
2022-08-16T11:46:01.715Z,26.76
2022-08-16T11:48:51.640Z,26.78
2022-08-16T11:51:19.358Z,26.58
2022-08-16T11:53:47.280Z,26.76
2022-08-16T11:56:15.091Z,26.69
2022-08-16T11:58:43.820Z,26.60
2022-08-16T12:01:19.920Z,26.56
2022-08-16T12:03:57.509Z,26.51
2022-08-16T12:06:30.943Z,26.49
2022-08-16T12:09:02.055Z,26.50
2022-08-16T12:11:31.944Z,26.41
2022-08-16T12:14:04.516Z,26.43
2022-08-16T12:16:37.261Z,26.63
2022-08-16T12:19:10.796Z,26.79
2022-08-16T12:21:59.273Z,27.01
2022-08-16T12:24:28.331Z,27.13
2022-08-16T12:26:56.913Z,27.51
2022-08-16T12:29:25.827Z,27.64
2022-08-16T12:32:01.628Z,28.01
2022-08-16T12:34:50.894Z,28.18
2022-08-16T12:37:24.320Z,28.45
2022-08-16T12:39:56.378Z,28.59
2022-08-16T12:42:34.352Z,28.62
2022-08-16T12:45:07.160Z,28.73
2022-08-16T12:48:09.948Z,28.98
2022-08-16T12:50:42.113Z,29.14
2022-08-16T12:53:18.358Z,29.06
2022-08-16T12:55:49.400Z,29.34
2022-08-16T12:58:49.665Z,29.42
2022-08-16T13:01:09.962Z,29.37
2022-08-16T13:03:40.561Z,29.46
2022-08-16T13:06:08.801Z,29.53
2022-08-16T13:08:36.645Z,29.69
2022-08-16T13:11:07.787Z,29.75
2022-08-16T13:13:36.120Z,29.75
2022-08-16T13:16:15.495Z,29.60
2022-08-16T13:18:51.567Z,29.35
2022-08-16T13:21:23.671Z,29.32
2022-08-16T13:23:55.279Z,29.33
2022-08-16T13:26:26.298Z,29.23
2022-08-16T13:28:54.960Z,29.01
2022-08-16T13:31:23.872Z,29.12
2022-08-16T13:33:55.727Z,29.09
2022-08-16T13:36:48.117Z,29.10
2022-08-16T13:39:15.920Z,29.10
2022-08-16T13:41:44.640Z,29.15
2022-08-16T13:44:21.972Z,29.07
2022-08-16T13:47:07.920Z,29.18
2022-08-16T13:49:35.683Z,29.20
2022-08-16T13:52:04.084Z,29.11
2022-08-16T13:54:34.566Z,29.21
2022-08-16T13:57:02.276Z,29.37
2022-08-16T13:59:32.594Z,29.51
2022-08-16T14:02:06.372Z,29.74
2022-08-16T14:04:38.015Z,29.82
2022-08-16T14:07:10.224Z,29.91
2022-08-16T14:09:39.481Z,29.96
2022-08-16T14:12:26.285Z,30.05
2022-08-16T14:14:57.937Z,30.09
2022-08-16T14:17:28.328Z,29.99
2022-08-16T14:19:59.788Z,29.93
2022-08-16T14:22:39.996Z,29.90
2022-08-16T14:25:20.085Z,29.89
2022-08-16T14:27:52.361Z,29.80
2022-08-16T14:30:23.421Z,29.76
2022-08-16T14:32:54.028Z,29.60
2022-08-16T14:35:36.811Z,29.39
2022-08-16T14:38:19.232Z,29.45
2022-08-16T14:40:55.471Z,29.24
2022-08-16T14:43:25.531Z,29.24
2022-08-16T14:45:55.555Z,29.16
2022-08-16T14:48:26.345Z,29.09
2022-08-16T14:50:55.593Z,29.05
2022-08-16T14:53:26.421Z,28.97
2022-08-16T14:55:55.257Z,28.96
2022-08-16T14:58:34.895Z,28.92
2022-08-16T15:01:06.557Z,28.75
2022-08-16T15:03:38.415Z,28.79
2022-08-16T15:06:13.158Z,28.68
2022-08-16T15:08:42.263Z,27.63
2022-08-16T15:11:09.957Z,26.99
2022-08-16T15:13:38.441Z,26.62
2022-08-16T15:16:06.472Z,25.96
2022-08-16T15:18:35.230Z,25.93
2022-08-16T15:21:04.885Z,25.63
2022-08-16T15:23:33.758Z,25.39
2022-08-16T15:26:04.267Z,25.17
2022-08-16T15:28:38.481Z,25.21
2022-08-16T15:31:10.329Z,25.20
2022-08-16T15:33:51.103Z,25.01
2022-08-16T15:36:26.330Z,24.94
2022-08-16T15:39:07.113Z,25.01
2022-08-16T15:41:47.034Z,24.91
2022-08-16T15:44:22.265Z,24.88
2022-08-16T15:46:55.094Z,24.62
2022-08-16T15:49:37.027Z,24.37
2022-08-16T15:52:29.457Z,24.46
2022-08-16T15:55:13.032Z,24.39
2022-08-16T15:57:49.872Z,24.42
2022-08-16T16:00:22.629Z,24.49
2022-08-16T16:03:03.209Z,24.50
2022-08-16T16:05:30.954Z,24.56
2022-08-16T16:08:11.044Z,24.52
2022-08-16T16:10:54.141Z,24.37
2022-08-16T16:13:23.572Z,24.43
2022-08-16T16:15:56.194Z,24.42
2022-08-16T16:18:27.115Z,24.10
2022-08-16T16:21:02.116Z,24.02
2022-08-16T16:23:53.742Z,24.04
2022-08-16T16:26:23.259Z,24.08
2022-08-16T16:29:07.986Z,24.07
2022-08-16T16:31:44.009Z,24.29
2022-08-16T16:34:32.422Z,24.33
2022-08-16T16:37:04.267Z,24.28
2022-08-16T16:39:32.744Z,24.43
2022-08-16T16:42:00.614Z,24.46
2022-08-16T16:44:33.487Z,24.50
2022-08-16T16:47:03.861Z,24.41
2022-08-16T16:49:33.944Z,24.35
2022-08-16T16:52:06.684Z,24.31
2022-08-16T16:54:35.759Z,24.41
2022-08-16T16:57:04.243Z,24.40
2022-08-16T16:59:31.922Z,24.36
2022-08-16T17:02:41.767Z,24.25
2022-08-16T17:04:48.889Z,24.34
2022-08-16T17:07:17.990Z,24.30
2022-08-16T17:09:53.175Z,24.39
2022-08-16T17:12:47.262Z,24.41
2022-08-16T17:15:10.485Z,24.34
2022-08-16T17:18:00.175Z,24.27
2022-08-16T17:20:27.662Z,24.38
2022-08-16T17:22:56.927Z,24.31
2022-08-16T17:25:27.183Z,24.33
2022-08-16T17:28:58.571Z,24.25
2022-08-16T17:30:54.991Z,24.46
2022-08-16T17:33:22.877Z,24.40
2022-08-16T17:35:55.552Z,24.40
2022-08-16T17:38:39.342Z,24.41
2022-08-16T17:41:14.115Z,24.32
2022-08-16T17:43:44.911Z,24.39
2022-08-16T17:46:50.650Z,24.61
2022-08-16T17:49:04.515Z,24.59
2022-08-16T17:51:34.195Z,24.46
2022-08-16T17:54:03.532Z,24.36
2022-08-16T17:56:31.537Z,24.47
2022-08-16T17:58:59.288Z,24.36
2022-08-16T18:01:28.777Z,24.41
2022-08-16T18:04:09.000Z,24.42
2022-08-16T18:06:39.597Z,24.43
2022-08-16T18:09:09.297Z,24.41
2022-08-16T18:11:41.004Z,24.39
2022-08-16T18:14:10.288Z,24.37
2022-08-16T18:16:38.191Z,24.41
2022-08-16T18:19:05.810Z,24.49
2022-08-16T18:21:52.418Z,24.46
2022-08-16T18:24:20.598Z,24.41
2022-08-16T18:26:48.304Z,24.28
2022-08-16T18:29:16.378Z,24.39
2022-08-16T18:31:44.295Z,24.21
2022-08-16T18:34:12.319Z,24.35
2022-08-16T18:36:40.184Z,24.32
2022-08-16T18:39:07.863Z,24.27
2022-08-16T18:41:38.143Z,24.17
2022-08-16T18:44:26.909Z,24.10
2022-08-16T18:46:56.400Z,24.10
2022-08-16T18:49:24.245Z,24.13
2022-08-16T18:51:58.008Z,24.09
2022-08-16T18:54:28.212Z,23.98
2022-08-16T18:56:58.298Z,24.09
2022-08-16T18:59:28.777Z,24.11
2022-08-16T19:02:00.181Z,24.05
2022-08-16T19:04:54.878Z,24.00
2022-08-16T19:07:31.140Z,24.06
2022-08-16T19:10:02.944Z,24.02
2022-08-16T19:12:37.909Z,23.97
2022-08-16T19:15:16.753Z,23.77
2022-08-16T19:17:46.159Z,23.76
2022-08-16T19:20:20.562Z,23.72
2022-08-16T19:23:05.417Z,23.75
2022-08-16T19:25:47.900Z,23.63
2022-08-16T19:28:50.598Z,23.68
2022-08-16T19:31:31.420Z,23.52
2022-08-16T19:34:00.466Z,23.67
2022-08-16T19:36:36.969Z,23.67
2022-08-16T19:39:15.209Z,23.67
2022-08-16T19:41:53.694Z,23.49
2022-08-16T19:44:23.449Z,23.52
2022-08-16T19:46:54.901Z,23.34
2022-08-16T19:49:22.552Z,23.42
2022-08-16T19:51:51.597Z,23.37
2022-08-16T19:54:19.379Z,23.34
2022-08-16T19:56:47.165Z,23.30
2022-08-16T19:59:39.494Z,23.11
2022-08-16T20:02:02.841Z,23.13
2022-08-16T20:04:30.837Z,22.92
2022-08-16T20:06:59.009Z,22.83
2022-08-16T20:09:26.725Z,22.89
2022-08-16T20:11:55.203Z,22.67
2022-08-16T20:14:25.978Z,22.74
2022-08-16T20:16:57.242Z,22.67
2022-08-16T20:19:35.211Z,22.63
2022-08-16T20:23:02.470Z,22.71
2022-08-16T20:25:29.652Z,22.63
2022-08-16T20:27:59.504Z,22.71
2022-08-16T20:30:28.605Z,22.65
2022-08-16T20:32:56.777Z,22.75
2022-08-16T20:35:27.713Z,22.58
2022-08-16T20:37:56.659Z,22.48
2022-08-16T20:40:34.152Z,22.57
2022-08-16T20:43:13.366Z,22.60
2022-08-16T20:45:44.703Z,22.57
2022-08-16T20:48:13.734Z,22.52
2022-08-16T20:50:41.986Z,22.39
2022-08-16T20:53:10.686Z,22.36
2022-08-16T20:55:40.392Z,22.48
2022-08-16T20:58:08.636Z,22.44
2022-08-16T21:00:36.694Z,22.43
2022-08-16T21:03:12.137Z,22.43
2022-08-16T21:05:40.065Z,22.28
2022-08-16T21:08:52.593Z,22.41
2022-08-16T21:10:58.101Z,22.43
2022-08-16T21:13:26.128Z,22.41
2022-08-16T21:15:53.791Z,22.32
2022-08-16T21:18:22.165Z,22.29
2022-08-16T21:20:49.853Z,22.36
2022-08-16T21:23:17.900Z,22.42
2022-08-16T21:25:58.234Z,22.32
2022-08-16T21:28:42.046Z,22.35
2022-08-16T21:31:16.636Z,22.45
2022-08-16T21:33:54.911Z,22.29
2022-08-16T21:36:35.919Z,22.36
2022-08-16T21:39:06.270Z,22.51
2022-08-16T21:41:38.311Z,22.46
2022-08-16T21:44:06.220Z,22.57
2022-08-16T21:46:33.978Z,22.65
2022-08-16T21:49:01.707Z,22.37
2022-08-16T21:51:29.328Z,22.40
2022-08-16T21:53:56.995Z,22.36
2022-08-16T21:56:24.636Z,22.57
2022-08-16T21:58:53.073Z,22.57
2022-08-16T22:01:23.407Z,22.45
2022-08-16T22:04:03.511Z,22.58
2022-08-16T22:06:40.970Z,22.67
2022-08-16T22:09:12.884Z,22.71
2022-08-16T22:11:41.385Z,22.54
2022-08-16T22:14:09.180Z,22.67
2022-08-16T22:16:39.738Z,22.63
2022-08-16T22:19:07.825Z,22.50
2022-08-16T22:21:36.005Z,22.47
2022-08-16T22:24:04.552Z,22.57
2022-08-16T22:26:37.616Z,22.43
2022-08-16T22:29:13.055Z,22.43
2022-08-16T22:31:41.806Z,22.39
2022-08-16T22:34:09.400Z,22.30
2022-08-16T22:36:37.388Z,22.12
2022-08-16T22:39:09.393Z,22.05
2022-08-16T22:41:39.341Z,22.05
2022-08-16T22:44:07.414Z,21.98
2022-08-16T22:46:36.718Z,21.91
2022-08-16T22:49:06.830Z,21.91
2022-08-16T22:51:35.695Z,21.95
2022-08-16T22:54:40.904Z,22.01
2022-08-16T22:56:52.045Z,21.93
2022-08-16T22:59:19.723Z,21.98
2022-08-16T23:01:47.395Z,22.11
2022-08-16T23:04:15.173Z,21.72
2022-08-16T23:06:42.804Z,21.75
2022-08-16T23:09:10.562Z,21.76
2022-08-16T23:11:38.200Z,21.65
2022-08-16T23:14:05.858Z,21.50
2022-08-16T23:16:35.031Z,21.51
2022-08-16T23:19:07.083Z,21.34
2022-08-16T23:21:37.317Z,21.30
2022-08-16T23:24:07.328Z,21.45
2022-08-16T23:26:44.301Z,21.55
2022-08-16T23:29:24.855Z,21.42
2022-08-16T23:32:10.910Z,21.45
2022-08-16T23:34:38.711Z,21.16
2022-08-16T23:37:06.702Z,21.37
2022-08-16T23:39:35.881Z,21.38
2022-08-16T23:42:15.367Z,21.29
2022-08-16T23:45:03.498Z,21.21
2022-08-16T23:47:31.111Z,21.15
2022-08-16T23:50:03.450Z,21.17
2022-08-16T23:52:39.343Z,21.17
2022-08-16T23:55:20.015Z,21.05
2022-08-16T23:57:48.220Z,21.21
